createdAt,value
2023-03-19T00:05:13.476Z,10.6
2023-03-19T00:20:13.461Z,10.6
2023-03-19T00:35:13.541Z,10.6
2023-03-19T00:50:13.556Z,10.5
2023-03-19T01:05:13.546Z,10.6
2023-03-19T01:20:13.562Z,10.6
2023-03-19T01:35:13.563Z,10.7
2023-03-19T01:50:13.463Z,10.8
2023-03-19T02:05:13.555Z,10.8
2023-03-19T02:20:13.511Z,10.7
2023-03-19T02:35:13.531Z,10.5
2023-03-19T02:50:13.440Z,10.4
2023-03-19T03:05:13.581Z,10.4
2023-03-19T03:20:13.531Z,10.4
2023-03-19T03:35:13.452Z,10.2
2023-03-19T03:50:13.565Z,10.1
2023-03-19T04:05:13.585Z,9.8
2023-03-19T04:20:13.557Z,9.7
2023-03-19T04:35:13.579Z,9.6
2023-03-19T04:50:13.472Z,9.6
2023-03-19T05:05:13.481Z,9.6
2023-03-19T05:20:13.527Z,9.6
2023-03-19T05:35:13.541Z,9.7
2023-03-19T05:50:13.598Z,9.8
2023-03-19T06:05:13.463Z,9.8
2023-03-19T06:20:13.581Z,9.7
2023-03-19T06:35:13.587Z,9.6
2023-03-19T06:50:13.576Z,9.7
2023-03-19T07:05:13.582Z,9.8
2023-03-19T07:20:13.566Z,9.8
2023-03-19T07:35:13.543Z,10.1
2023-03-19T07:50:13.467Z,10.4
2023-03-19T08:05:13.552Z,10.6
2023-03-19T08:20:13.543Z,10.5
2023-03-19T08:35:13.578Z,10.6
2023-03-19T08:50:13.488Z,11.1
2023-03-19T09:05:13.556Z,11.6
2023-03-19T09:20:13.541Z,11.5
2023-03-19T09:35:13.542Z,11.4
2023-03-19T09:50:13.526Z,11.6
2023-03-19T10:05:13.538Z,12.2
2023-03-19T10:20:13.572Z,12.2
2023-03-19T10:35:13.446Z,12.3
2023-03-19T10:50:13.551Z,12
2023-03-19T11:05:13.554Z,12.3
2023-03-19T11:20:13.548Z,12.5
2023-03-19T11:35:13.555Z,12.8
2023-03-19T11:50:13.553Z,12.5
2023-03-19T12:05:13.541Z,12.7
2023-03-19T12:20:13.546Z,12.7
2023-03-19T12:35:13.544Z,12.8
2023-03-19T12:50:13.571Z,12.9
2023-03-19T13:05:13.580Z,13.4
2023-03-19T13:20:13.575Z,13.6
2023-03-19T13:35:13.593Z,13.9
2023-03-19T13:50:13.561Z,14
2023-03-19T14:05:13.574Z,13.8
2023-03-19T14:20:15.202Z,13.2
2023-03-19T14:35:13.568Z,12.6
2023-03-19T14:50:13.540Z,11.5
2023-03-19T15:05:13.608Z,11.1
2023-03-19T15:20:13.531Z,11.3
2023-03-19T15:35:13.772Z,11.4
2023-03-19T15:50:13.586Z,11.6
2023-03-19T16:05:22.191Z,11.7
2023-03-19T16:20:13.558Z,11.6
2023-03-19T16:35:13.548Z,11.6
2023-03-19T16:50:13.588Z,11.7
2023-03-19T17:05:13.545Z,11.4
2023-03-19T17:20:13.572Z,11.1
2023-03-19T17:35:13.570Z,11
2023-03-19T17:50:13.556Z,10.8
2023-03-19T18:05:13.537Z,10.6
2023-03-19T18:20:13.582Z,10.4
2023-03-19T18:35:13.556Z,10.3
2023-03-19T18:50:13.568Z,10.2
2023-03-19T19:05:13.560Z,10.1
2023-03-19T19:20:13.465Z,10
2023-03-19T19:35:13.555Z,9.8
2023-03-19T19:50:13.587Z,9.4
2023-03-19T20:05:13.593Z,9.2
2023-03-19T20:20:13.575Z,8.9
2023-03-19T20:35:13.553Z,8.8
2023-03-19T20:50:13.537Z,8.7
2023-03-19T21:05:13.499Z,8.6
2023-03-19T21:20:13.572Z,8.6
2023-03-19T21:35:13.568Z,8.4
2023-03-19T21:50:13.558Z,8.3
2023-03-19T22:05:13.467Z,8.2
2023-03-19T22:20:13.565Z,8.1
2023-03-19T22:35:13.563Z,8.1
2023-03-19T22:50:13.579Z,8.1
2023-03-19T23:05:13.565Z,8.1
2023-03-19T23:20:13.552Z,7.9
2023-03-19T23:35:13.550Z,7.9
2023-03-19T23:50:13.534Z,7.9
